Time;durP1;ratioP1;P1;durP2;ratioP2;P2;SDS_P1;SDS_P2;PMS_P1;PMS_P2;Temp;Humidity;BMP_temperature;BMP_pressure;BME280_temperature;BME280_humidity;BME280_pressure;Samples;Min_cycle;Max_cycle;Signal;HPM_P1;HPM_P2
2021/01/04 00:01:46;;;;;;;5.47;4.95;;;0.80;99.90;;;;;;4881248;28;20434;-75
2021/01/04 00:04:30;;;;;;;5.47;4.70;;;0.80;99.90;;;;;;4912293;28;20442;-76
2021/01/04 00:07:13;;;;;;;5.80;4.63;;;0.90;99.90;;;;;;4850196;28;20455;-78
2021/01/04 00:09:46;;;;;;;7.20;4.97;;;0.90;99.90;;;;;;4853972;29;20791;-75
2021/01/04 00:12:17;;;;;;;7.88;4.68;;;0.80;99.90;;;;;;4920839;28;20485;-76
2021/01/04 00:14:57;;;;;;;7.28;5.30;;;0.80;99.90;;;;;;4854668;29;20477;-74
2021/01/04 00:17:44;;;;;;;5.63;5.03;;;0.90;99.90;;;;;;4864988;29;20421;-77
2021/01/04 00:20:20;;;;;;;6.97;5.28;;;0.90;99.90;;;;;;4850774;29;20456;-78
2021/01/04 00:23:39;;;;;;;5.82;5.22;;;0.90;99.90;;;;;;4840100;29;20421;-75
2021/01/04 00:26:12;;;;;;;6.32;5.18;;;0.90;99.90;;;;;;4906364;28;20418;-75
2021/01/04 00:28:38;;;;;;;6.65;5.30;;;0.90;99.90;;;;;;4883800;28;20476;-77
2021/01/04 00:31:08;;;;;;;5.77;5.27;;;0.90;99.90;;;;;;4888842;28;20579;-75
2021/01/04 00:33:46;;;;;;;7.53;5.78;;;0.90;99.90;;;;;;4851614;29;20434;-75
2021/01/04 00:36:23;;;;;;;7.70;5.70;;;0.90;99.90;;;;;;4837460;29;20403;-74
2021/01/04 00:39:26;;;;;;;6.30;5.20;;;0.90;99.90;;;;;;4866256;29;20409;-76
2021/01/04 00:42:02;;;;;;;7.88;5.43;;;0.90;99.90;;;;;;4867553;28;20436;-75
2021/01/04 00:44:55;;;;;;;7.57;5.32;;;0.90;99.90;;;;;;4855159;29;20810;-79
2021/01/04 00:47:28;;;;;;;7.47;5.47;;;0.90;99.90;;;;;;4871782;28;20531;-74
2021/01/04 00:49:59;;;;;;;6.55;5.68;;;0.90;99.90;;;;;;4869415;29;20444;-77
2021/01/04 00:52:39;;;;;;;7.30;5.93;;;0.90;99.90;;;;;;4854133;29;20413;-74
2021/01/04 00:55:15;;;;;;;9.15;7.00;;;0.90;99.90;;;;;;4852397;29;20500;-75
2021/01/04 00:58:26;;;;;;;7.20;6.10;;;0.90;99.90;;;;;;4858628;29;20421;-75
2021/01/04 01:00:57;;;;;;;9.48;6.50;;;0.90;99.90;;;;;;4883344;29;20443;-77
2021/01/04 01:03:40;;;;;;;8.10;6.13;;;0.90;99.90;;;;;;4856228;29;21032;-76
2021/01/04 01:06:19;;;;;;;7.20;5.93;;;0.90;99.90;;;;;;4864192;29;20425;-78
2021/01/04 01:08:44;;;;;;;7.63;6.28;;;0.80;99.90;;;;;;4836114;29;20503;-75
2021/01/04 01:11:13;;;;;;;8.20;6.35;;;0.90;99.90;;;;;;4875539;28;20494;-77
2021/01/04 01:14:15;;;;;;;8.25;6.30;;;0.90;99.90;;;;;;4842228;29;20520;-79
2021/01/04 01:17:13;;;;;;;8.02;6.30;;;0.90;99.90;;;;;;4869009;29;20419;-81
2021/01/04 01:19:47;;;;;;;9.10;6.40;;;0.90;99.90;;;;;;4856587;29;20432;-78
2021/01/04 01:22:15;;;;;;;8.35;6.63;;;0.80;99.90;;;;;;4838400;29;20440;-75
2021/01/04 01:24:42;;;;;;;7.83;6.73;;;0.90;99.90;;;;;;4848911;29;20420;-75
2021/01/04 01:27:17;;;;;;;7.88;6.57;;;0.90;99.90;;;;;;4840822;29;21164;-76
2021/01/04 01:30:05;;;;;;;9.02;6.70;;;0.80;99.90;;;;;;4858234;29;20806;-76
2021/01/04 01:32:39;;;;;;;10.52;6.82;;;0.90;99.90;;;;;;4871768;28;20413;-75
2021/01/04 01:35:12;;;;;;;9.70;7.40;;;0.90;99.90;;;;;;4827690;29;20407;-75
2021/01/04 01:37:47;;;;;;;9.80;6.90;;;0.90;99.90;;;;;;4856337;29;20440;-75
2021/01/04 01:40:32;;;;;;;8.88;6.43;;;0.90;99.90;;;;;;4832654;29;20961;-76
2021/01/04 01:43:05;;;;;;;10.82;7.03;;;0.90;99.90;;;;;;4868532;29;20412;-77
2021/01/04 01:45:50;;;;;;;9.63;7.65;;;0.80;99.90;;;;;;4870904;28;20427;-81
2021/01/04 01:48:23;;;;;;;9.45;7.30;;;0.90;99.90;;;;;;4851631;29;20470;-76
2021/01/04 01:51:03;;;;;;;10.30;7.63;;;0.90;99.90;;;;;;4870519;28;20427;-75
2021/01/04 01:53:32;;;;;;;8.55;6.93;;;0.90;99.90;;;;;;4863582;29;20491;-75
2021/01/04 01:56:00;;;;;;;10.10;6.85;;;0.90;99.90;;;;;;4871797;28;20766;-79
2021/01/04 01:58:33;;;;;;;10.05;7.80;;;0.90;99.90;;;;;;4874567;28;20501;-76
2021/01/04 02:00:58;;;;;;;9.88;7.68;;;0.90;99.90;;;;;;4871751;28;20441;-80
2021/01/04 02:03:42;;;;;;;12.10;7.30;;;0.90;99.90;;;;;;4882300;28;20513;-83
2021/01/04 02:06:33;;;;;;;9.50;6.68;;;0.90;99.90;;;;;;4873963;28;20428;-76
2021/01/04 02:09:22;;;;;;;14.38;7.78;;;0.90;99.90;;;;;;4884433;28;20433;-75
2021/01/04 02:11:53;;;;;;;11.98;7.72;;;0.90;99.90;;;;;;4847476;29;20433;-75
2021/01/04 02:14:49;;;;;;;10.65;8.00;;;0.90;99.90;;;;;;4902560;28;20437;-78
2021/01/04 02:17:21;;;;;;;11.27;8.00;;;0.90;99.90;;;;;;4856729;29;20502;-74
2021/01/04 02:20:31;;;;;;;10.38;7.60;;;0.90;99.90;;;;;;4854533;28;20438;-76
2021/01/04 02:23:12;;;;;;;10.68;8.13;;;0.90;99.90;;;;;;4840525;29;20486;-75
2021/01/04 02:25:39;;;;;;;11.68;8.40;;;0.90;99.90;;;;;;4869054;28;20472;-73
2021/01/04 02:28:08;;;;;;;11.50;7.68;;;0.90;99.90;;;;;;4908767;28;20780;-77
2021/01/04 02:30:34;;;;;;;14.02;8.73;;;0.90;99.90;;;;;;4852577;29;23068;-76
2021/01/04 02:33:00;;;;;;;8.73;7.10;;;0.90;99.90;;;;;;4874332;28;20507;-79
2021/01/04 02:35:25;;;;;;;11.17;7.87;;;0.90;99.90;;;;;;4869007;28;20456;-75
2021/01/04 02:37:51;;;;;;;10.00;7.75;;;0.90;99.90;;;;;;4865423;29;20411;-74
2021/01/04 02:40:17;;;;;;;11.30;7.67;;;0.90;99.90;;;;;;4861171;29;20415;-75
2021/01/04 02:42:45;;;;;;;12.30;8.27;;;0.90;99.90;;;;;;4863249;29;20499;-76
2021/01/04 02:45:14;;;;;;;11.85;7.70;;;0.90;99.90;;;;;;4862695;29;20430;-78
2021/01/04 02:48:01;;;;;;;12.13;8.35;;;0.90;99.90;;;;;;4841786;29;20448;-75
2021/01/04 02:50:41;;;;;;;11.98;8.15;;;0.90;99.90;;;;;;4873165;29;20409;-82
2021/01/04 02:53:46;;;;;;;11.63;8.23;;;0.90;99.90;;;;;;4862997;29;20405;-78
2021/01/04 02:56:53;;;;;;;11.40;7.63;;;0.90;99.90;;;;;;4859518;29;20409;-75
2021/01/04 02:59:39;;;;;;;12.47;7.50;;;1.00;99.90;;;;;;4871277;29;20412;-75
2021/01/04 03:02:42;;;;;;;11.18;8.52;;;0.90;99.90;;;;;;4852257;29;20504;-76
2021/01/04 03:05:09;;;;;;;10.90;8.32;;;0.90;99.90;;;;;;4868163;28;20413;-75
2021/01/04 03:07:35;;;;;;;10.50;7.68;;;0.90;99.90;;;;;;4857617;28;20421;-75
2021/01/04 03:10:19;;;;;;;9.15;6.95;;;0.90;99.90;;;;;;4839221;29;20819;-78
2021/01/04 03:12:46;;;;;;;11.87;7.53;;;0.90;99.90;;;;;;4867770;28;20421;-75
2021/01/04 03:15:36;;;;;;;12.65;7.38;;;0.90;99.90;;;;;;4849271;28;20399;-75
2021/01/04 03:18:24;;;;;;;11.15;6.95;;;0.90;99.90;;;;;;4853125;29;20425;-76
2021/01/04 03:20:49;;;;;;;7.78;6.07;;;0.90;99.90;;;;;;4871044;29;20424;-75
2021/01/04 03:23:15;;;;;;;8.63;6.40;;;0.90;99.90;;;;;;4841483;29;20479;-76
2021/01/04 03:25:41;;;;;;;8.40;6.20;;;0.90;99.90;;;;;;4847500;29;20492;-74
2021/01/04 03:28:13;;;;;;;7.10;5.82;;;0.90;99.90;;;;;;4875767;28;20440;-72
2021/01/04 03:30:38;;;;;;;9.77;5.85;;;0.90;99.90;;;;;;4853271;29;20477;-73
2021/01/04 03:33:04;;;;;;;7.67;5.83;;;0.90;99.90;;;;;;4855461;29;20710;-74
2021/01/04 03:35:30;;;;;;;7.57;6.10;;;1.00;99.90;;;;;;4842812;29;20449;-80
2021/01/04 03:37:55;;;;;;;7.30;6.13;;;1.00;99.90;;;;;;4870803;29;20417;-77
2021/01/04 03:40:21;;;;;;;7.38;6.05;;;1.00;99.90;;;;;;4863831;29;20479;-75
2021/01/04 03:42:47;;;;;;;8.77;6.27;;;0.90;99.90;;;;;;4862751;29;20415;-74
2021/01/04 03:45:14;;;;;;;7.93;6.10;;;0.90;99.90;;;;;;4844428;29;20422;-75
2021/01/04 03:47:39;;;;;;;10.68;6.90;;;1.00;99.90;;;;;;4825104;29;20400;-73
2021/01/04 03:50:06;;;;;;;9.07;7.05;;;1.00;99.90;;;;;;4889378;28;20432;-72
2021/01/04 03:52:32;;;;;;;10.00;7.43;;;1.00;99.90;;;;;;4848122;29;20415;-74
2021/01/04 03:54:58;;;;;;;9.35;7.05;;;1.00;99.90;;;;;;4853462;29;20419;-74
2021/01/04 03:57:23;;;;;;;10.35;7.38;;;0.90;99.90;;;;;;4844136;29;20442;-73
2021/01/04 03:59:49;;;;;;;11.47;7.53;;;0.90;99.90;;;;;;4850790;29;20961;-72
2021/01/04 04:02:14;;;;;;;10.40;7.50;;;1.00;99.90;;;;;;4831782;29;20425;-73
2021/01/04 04:04:41;;;;;;;9.13;7.83;;;0.90;99.90;;;;;;4851854;28;20417;-75
2021/01/04 04:07:07;;;;;;;10.63;7.78;;;0.90;99.90;;;;;;4858723;28;20417;-73
2021/01/04 04:09:32;;;;;;;10.93;6.87;;;0.90;99.90;;;;;;4858396;29;20451;-74
2021/01/04 04:11:58;;;;;;;12.48;8.18;;;0.90;99.90;;;;;;4874622;28;20431;-75
2021/01/04 04:14:24;;;;;;;9.20;7.70;;;0.90;99.90;;;;;;4848799;29;21161;-75
2021/01/04 04:16:50;;;;;;;10.80;7.73;;;0.90;99.90;;;;;;4837360;29;20425;-72
2021/01/04 04:19:16;;;;;;;10.45;7.88;;;0.90;99.90;;;;;;4856822;28;20498;-74
2021/01/04 04:21:41;;;;;;;12.32;7.93;;;1.00;99.90;;;;;;4854630;29;20511;-76
2021/01/04 04:24:07;;;;;;;10.65;7.82;;;0.90;99.90;;;;;;4833483;28;20924;-78
2021/01/04 04:26:33;;;;;;;10.43;7.38;;;0.90;99.90;;;;;;4876572;28;20521;-76
2021/01/04 04:28:59;;;;;;;10.07;7.50;;;0.90;99.90;;;;;;4882003;28;20476;-74
2021/01/04 04:31:25;;;;;;;10.75;7.43;;;0.90;99.90;;;;;;4845628;29;20417;-76
2021/01/04 04:33:52;;;;;;;11.45;8.60;;;1.00;99.90;;;;;;4835807;28;20416;-73
2021/01/04 04:36:23;;;;;;;10.88;7.80;;;1.00;99.90;;;;;;4832969;29;20442;-73
2021/01/04 04:38:49;;;;;;;10.18;7.22;;;0.80;99.90;;;;;;4837415;29;20448;-76
2021/01/04 04:41:34;;;;;;;13.07;8.35;;;0.90;99.90;;;;;;4867883;28;21186;-73
2021/01/04 04:44:06;;;;;;;10.30;8.02;;;0.90;99.90;;;;;;4856476;29;20428;-75
2021/01/04 04:46:36;;;;;;;11.20;7.78;;;0.90;99.90;;;;;;4853732;28;20475;-75
2021/01/04 04:49:05;;;;;;;10.98;8.23;;;0.90;99.90;;;;;;4864127;29;20425;-73
2021/01/04 04:51:44;;;;;;;11.43;8.60;;;0.90;99.90;;;;;;4860411;28;20440;-73
2021/01/04 04:54:22;;;;;;;9.77;7.38;;;0.90;99.90;;;;;;4858733;29;20430;-72
2021/01/04 04:57:06;;;;;;;10.48;7.35;;;0.90;99.90;;;;;;4878177;28;20431;-72
2021/01/04 04:59:59;;;;;;;10.32;7.78;;;0.90;99.90;;;;;;4823003;28;20425;-73
2021/01/04 05:03:00;;;;;;;13.32;8.57;;;0.90;99.90;;;;;;4864001;28;20425;-73
2021/01/04 05:05:57;;;;;;;11.27;8.33;;;0.90;99.90;;;;;;4858469;28;21091;-73
2021/01/04 05:08:50;;;;;;;10.90;7.88;;;0.90;99.90;;;;;;4868220;29;20425;-74
2021/01/04 05:11:19;;;;;;;11.17;8.10;;;1.00;99.90;;;;;;4864232;28;20445;-77
2021/01/04 05:13:46;;;;;;;14.80;8.32;;;1.10;99.90;;;;;;4839601;28;20434;-73
2021/01/04 05:16:17;;;;;;;10.38;8.18;;;1.00;99.90;;;;;;4867656;28;20424;-72
2021/01/04 05:19:10;;;;;;;9.98;7.97;;;1.00;99.90;;;;;;4866741;28;20495;-73
2021/01/04 05:21:47;;;;;;;14.80;8.63;;;1.00;99.90;;;;;;4860447;28;20442;-72
2021/01/04 05:24:34;;;;;;;12.25;8.40;;;0.90;99.90;;;;;;4880630;28;20421;-72
2021/01/04 05:27:18;;;;;;;12.00;8.30;;;0.90;99.90;;;;;;4855949;28;20437;-73
2021/01/04 05:30:23;;;;;;;9.38;7.80;;;0.90;99.90;;;;;;4867277;28;20432;-72
2021/01/04 05:33:11;;;;;;;12.63;8.55;;;0.90;99.90;;;;;;4950422;28;20416;-72
2021/01/04 05:35:37;;;;;;;12.10;8.27;;;0.90;99.90;;;;;;4942678;28;20416;-74
2021/01/04 05:38:09;;;;;;;9.67;8.10;;;0.90;99.90;;;;;;4863857;29;20991;-76
2021/01/04 05:41:03;;;;;;;12.13;8.77;;;0.90;99.90;;;;;;4872166;28;20515;-74
2021/01/04 05:43:51;;;;;;;9.90;7.43;;;0.90;99.90;;;;;;4855693;29;20829;-73
2021/01/04 05:46:28;;;;;;;11.10;7.88;;;0.90;99.90;;;;;;4911360;28;20451;-71
2021/01/04 05:49:15;;;;;;;12.63;8.57;;;1.00;99.90;;;;;;4942816;28;20930;-72
2021/01/04 05:51:46;;;;;;;9.07;7.53;;;0.90;99.90;;;;;;4895357;28;20405;-73
2021/01/04 05:54:12;;;;;;;13.23;7.97;;;1.00;99.90;;;;;;4858567;28;20448;-76
2021/01/04 05:56:37;;;;;;;9.88;7.43;;;0.90;99.90;;;;;;4855962;29;20489;-78
2021/01/04 05:59:13;;;;;;;12.18;7.88;;;1.00;99.90;;;;;;4866101;29;20413;-78
2021/01/04 06:01:41;;;;;;;10.48;8.18;;;0.90;99.90;;;;;;4851527;29;20534;-72
2021/01/04 06:04:27;;;;;;;10.80;7.53;;;0.90;99.90;;;;;;4835931;29;20418;-77
2021/01/04 06:06:57;;;;;;;11.38;8.65;;;1.00;99.90;;;;;;4870708;28;20416;-77
2021/01/04 06:09:24;;;;;;;13.05;8.07;;;1.00;99.90;;;;;;4845174;28;20825;-74
2021/01/04 06:11:57;;;;;;;11.38;8.38;;;0.90;99.90;;;;;;4861219;29;20413;-74
2021/01/04 06:14:30;;;;;;;15.03;7.97;;;1.00;99.90;;;;;;4921823;28;20468;-74
2021/01/04 06:17:31;;;;;;;10.15;7.35;;;1.00;99.90;;;;;;4855411;29;20501;-74
2021/01/04 06:20:17;;;;;;;9.52;7.07;;;1.00;99.90;;;;;;4874013;28;20426;-73
2021/01/04 06:22:42;;;;;;;10.00;8.00;;;1.00;99.90;;;;;;4858100;29;20405;-74
2021/01/04 06:25:09;;;;;;;11.70;7.73;;;1.00;99.90;;;;;;4840467;29;20424;-72
2021/01/04 06:27:38;;;;;;;10.05;7.18;;;0.90;99.90;;;;;;4852726;29;20409;-73
2021/01/04 06:30:26;;;;;;;9.70;6.97;;;0.90;99.90;;;;;;4865532;28;20426;-72
2021/01/04 06:32:51;;;;;;;8.25;7.22;;;0.90;99.90;;;;;;4865339;28;20446;-73
2021/01/04 06:35:20;;;;;;;10.20;7.53;;;0.90;99.90;;;;;;4865403;28;21752;-72
2021/01/04 06:37:46;;;;;;;10.20;7.57;;;1.00;99.90;;;;;;4867343;29;20763;-73
2021/01/04 06:40:37;;;;;;;12.15;8.13;;;0.90;99.90;;;;;;4867683;28;20424;-74
2021/01/04 06:43:28;;;;;;;11.85;8.18;;;1.00;99.90;;;;;;4872673;28;20408;-72
2021/01/04 06:46:19;;;;;;;10.70;8.25;;;0.90;99.90;;;;;;4862709;29;20842;-77
2021/01/04 06:48:54;;;;;;;13.70;8.57;;;0.90;99.90;;;;;;4884219;29;20429;-74
2021/01/04 06:51:23;;;;;;;13.15;8.48;;;0.90;99.90;;;;;;4852101;29;20418;-72
2021/01/04 06:53:57;;;;;;;12.75;8.48;;;0.90;99.90;;;;;;4888038;28;20426;-75
2021/01/04 06:56:41;;;;;;;12.32;8.75;;;0.90;99.90;;;;;;4849208;29;20436;-74
2021/01/04 06:59:43;;;;;;;11.07;8.37;;;0.90;99.90;;;;;;4854658;29;20397;-75
2021/01/04 07:02:39;;;;;;;12.52;8.63;;;0.90;99.90;;;;;;4858824;29;20444;-73
2021/01/04 07:05:17;;;;;;;13.00;8.98;;;1.00;99.90;;;;;;4865845;29;20410;-74
2021/01/04 07:08:01;;;;;;;13.63;9.38;;;1.00;99.90;;;;;;4879152;28;21106;-72
2021/01/04 07:10:46;;;;;;;11.30;8.88;;;0.90;99.90;;;;;;4850262;29;20417;-73
2021/01/04 07:13:39;;;;;;;14.98;9.27;;;1.00;99.90;;;;;;4924734;28;20410;-75
2021/01/04 07:16:17;;;;;;;12.68;7.75;;;0.90;99.90;;;;;;4863506;29;20973;-79
2021/01/04 07:18:57;;;;;;;13.30;8.57;;;0.90;99.90;;;;;;4877097;28;20424;-74
2021/01/04 07:21:33;;;;;;;12.00;7.82;;;1.00;99.90;;;;;;4846939;29;20423;-73
2021/01/04 07:24:27;;;;;;;16.35;9.18;;;1.00;99.90;;;;;;4873178;29;20433;-75
2021/01/04 07:27:31;;;;;;;13.82;8.75;;;1.00;99.90;;;;;;4874587;29;20515;-75
2021/01/04 07:30:22;;;;;;;15.60;8.70;;;0.90;99.90;;;;;;4869396;29;20490;-77
2021/01/04 07:33:22;;;;;;;12.82;8.35;;;1.00;99.90;;;;;;4949021;28;20439;-74
2021/01/04 07:36:02;;;;;;;12.87;8.33;;;1.00;99.90;;;;;;4848587;29;20413;-74
2021/01/04 07:38:41;;;;;;;12.82;8.73;;;1.00;99.90;;;;;;4870905;28;20409;-73
2021/01/04 07:41:37;;;;;;;14.43;8.50;;;1.00;99.90;;;;;;4881939;28;20436;-71
2021/01/04 07:44:19;;;;;;;12.50;8.33;;;1.00;99.90;;;;;;4874420;29;20600;-71
2021/01/04 07:47:25;;;;;;;11.98;9.40;;;1.00;99.90;;;;;;4858716;29;20417;-73
2021/01/04 07:50:21;;;;;;;12.23;8.68;;;1.10;99.90;;;;;;4911928;29;20424;-72
2021/01/04 07:53:19;;;;;;;11.98;8.90;;;1.00;99.90;;;;;;4832459;29;20515;-72
2021/01/04 07:55:51;;;;;;;12.63;8.57;;;1.00;99.90;;;;;;4852479;29;20439;-71
2021/01/04 07:58:19;;;;;;;12.97;9.20;;;1.00;99.90;;;;;;4849465;29;20426;-73
2021/01/04 08:01:13;;;;;;;11.57;8.80;;;1.00;99.90;;;;;;4849632;29;20492;-74
2021/01/04 08:04:02;;;;;;;13.07;8.40;;;1.00;99.90;;;;;;4844714;29;20785;-72
2021/01/04 08:07:04;;;;;;;16.50;9.43;;;1.00;99.90;;;;;;4850798;29;20526;-71
2021/01/04 08:10:03;;;;;;;12.03;8.93;;;1.10;99.90;;;;;;4843167;29;20416;-72
2021/01/04 08:12:47;;;;;;;10.73;8.38;;;1.10;99.90;;;;;;4869943;28;20486;-72
2021/01/04 08:15:34;;;;;;;11.50;8.70;;;1.10;99.90;;;;;;4867838;29;20461;-75
2021/01/04 08:18:06;;;;;;;11.05;9.13;;;1.00;99.90;;;;;;4874711;28;20409;-75
2021/01/04 08:20:33;;;;;;;14.50;10.13;;;1.00;99.90;;;;;;4863917;29;20970;-73
2021/01/04 08:23:21;;;;;;;12.77;9.45;;;1.00;99.90;;;;;;4866417;29;20991;-74
2021/01/04 08:25:50;;;;;;;12.00;8.73;;;1.00;99.90;;;;;;4869353;28;20423;-73
2021/01/04 08:28:22;;;;;;;14.07;9.15;;;1.10;99.90;;;;;;4890139;28;20419;-73
2021/01/04 08:31:14;;;;;;;13.17;9.23;;;1.10;99.90;;;;;;4834999;29;20428;-74
2021/01/04 08:33:54;;;;;;;15.45;10.27;;;1.10;99.90;;;;;;4859840;28;20470;-76
2021/01/04 08:36:26;;;;;;;13.70;9.85;;;1.10;99.90;;;;;;4854063;29;20420;-73
2021/01/04 08:39:02;;;;;;;16.45;10.27;;;1.10;99.90;;;;;;4834083;29;20410;-73
2021/01/04 08:41:29;;;;;;;14.05;9.85;;;1.20;99.90;;;;;;4843948;29;20408;-74
2021/01/04 08:43:55;;;;;;;16.15;9.63;;;1.00;99.90;;;;;;4836382;29;20436;-73
2021/01/04 08:46:24;;;;;;;13.10;9.73;;;1.10;99.90;;;;;;4861807;29;20411;-73
2021/01/04 08:48:51;;;;;;;14.18;8.98;;;1.10;99.90;;;;;;4873477;28;21028;-74
2021/01/04 08:51:31;;;;;;;12.52;9.23;;;1.10;99.90;;;;;;4821571;29;20405;-75
2021/01/04 08:54:00;;;;;;;11.95;9.20;;;1.10;99.90;;;;;;4851821;29;20417;-74
2021/01/04 08:56:31;;;;;;;14.13;9.48;;;1.10;99.90;;;;;;4857075;29;20415;-73
2021/01/04 08:59:17;;;;;;;14.65;9.50;;;1.10;99.90;;;;;;4865159;29;20413;-74
2021/01/04 09:01:54;;;;;;;17.55;10.82;;;1.10;99.90;;;;;;4846822;29;20488;-74
2021/01/04 09:04:36;;;;;;;11.65;8.90;;;1.10;99.90;;;;;;4858439;28;20473;-74
2021/01/04 09:07:02;;;;;;;14.07;9.48;;;1.10;99.90;;;;;;4930942;28;20471;-73
2021/01/04 09:09:31;;;;;;;14.47;9.60;;;1.10;99.90;;;;;;4878243;28;20409;-73
2021/01/04 09:12:02;;;;;;;14.95;10.07;;;1.10;99.90;;;;;;4854152;29;20475;-74
2021/01/04 09:14:54;;;;;;;12.30;8.93;;;1.10;99.90;;;;;;4856278;28;20409;-74
2021/01/04 09:17:31;;;;;;;14.50;9.13;;;1.10;99.90;;;;;;4863397;28;20947;-73
2021/01/04 09:20:09;;;;;;;15.35;8.63;;;1.20;99.90;;;;;;4818827;29;20433;-74
2021/01/04 09:22:35;;;;;;;12.15;7.72;;;1.20;99.90;;;;;;4848043;29;20436;-73
2021/01/04 09:25:01;;;;;;;12.48;8.98;;;1.20;99.90;;;;;;4868762;29;20421;-73
2021/01/04 09:27:31;;;;;;;11.60;8.53;;;1.20;99.90;;;;;;4852999;29;20483;-73
2021/01/04 09:30:04;;;;;;;12.93;9.17;;;1.30;99.90;;;;;;4857892;29;20402;-74
2021/01/04 09:32:39;;;;;;;11.85;8.75;;;1.30;99.90;;;;;;4867157;28;20448;-73
2021/01/04 09:35:15;;;;;;;12.88;8.70;;;1.30;99.90;;;;;;4867068;28;20410;-73
2021/01/04 09:37:41;;;;;;;15.80;9.13;;;1.30;99.90;;;;;;4855581;29;20453;-70
2021/01/04 09:40:09;;;;;;;13.97;8.90;;;1.40;99.90;;;;;;4841299;29;20436;-74
2021/01/04 09:42:35;;;;;;;13.00;7.97;;;1.30;99.90;;;;;;4858156;28;20438;-73
2021/01/04 09:45:27;;;;;;;15.60;9.63;;;1.40;99.90;;;;;;4857841;28;20419;-72
2021/01/04 09:47:54;;;;;;;10.38;7.72;;;1.40;99.90;;;;;;4867714;29;20753;-72
2021/01/04 09:50:30;;;;;;;12.15;9.40;;;1.40;99.90;;;;;;4849240;29;20423;-72
2021/01/04 09:53:06;;;;;;;13.57;8.93;;;1.40;99.90;;;;;;4879118;29;20414;-72
2021/01/04 09:55:34;;;;;;;10.75;8.05;;;1.50;99.90;;;;;;4844896;29;20484;-72
2021/01/04 09:58:01;;;;;;;12.50;9.15;;;1.40;99.90;;;;;;4844000;29;20409;-72
2021/01/04 10:00:32;;;;;;;13.77;8.55;;;1.60;99.90;;;;;;4845137;29;21226;-73
2021/01/04 10:03:06;;;;;;;12.70;8.70;;;1.40;99.90;;;;;;4828376;29;20892;-73
2021/01/04 10:05:37;;;;;;;10.52;8.20;;;1.40;99.90;;;;;;4841040;29;20413;-73
2021/01/04 10:08:05;;;;;;;14.43;9.02;;;1.50;99.90;;;;;;4848925;28;20438;-74
2021/01/04 10:10:31;;;;;;;14.00;9.70;;;1.50;99.90;;;;;;4833824;29;20415;-72
2021/01/04 10:13:10;;;;;;;13.40;9.50;;;1.40;99.90;;;;;;4843426;28;20439;-73
2021/01/04 10:15:35;;;;;;;14.23;9.23;;;1.40;99.90;;;;;;4852523;28;20460;-73
2021/01/04 10:18:16;;;;;;;14.27;8.87;;;1.40;99.90;;;;;;4825275;29;20480;-73
2021/01/04 10:20:49;;;;;;;15.27;9.63;;;1.40;99.90;;;;;;4853953;29;20498;-74
2021/01/04 10:23:20;;;;;;;13.30;8.88;;;1.50;99.90;;;;;;4841618;29;20463;-73
2021/01/04 10:25:51;;;;;;;13.45;9.00;;;1.50;99.90;;;;;;4865737;29;20906;-73
2021/01/04 10:28:17;;;;;;;16.20;9.50;;;1.50;99.90;;;;;;4846849;29;20440;-72
2021/01/04 10:30:43;;;;;;;12.57;8.70;;;1.50;99.90;;;;;;4849684;29;20403;-73
2021/01/04 10:33:24;;;;;;;12.25;9.20;;;1.50;99.90;;;;;;4865529;28;20409;-75
2021/01/04 10:36:21;;;;;;;13.23;9.43;;;1.50;99.90;;;;;;4925066;28;20762;-75
2021/01/04 10:39:17;;;;;;;15.52;9.93;;;1.50;99.90;;;;;;4871622;28;20444;-74
2021/01/04 10:41:43;;;;;;;12.97;9.70;;;1.50;99.90;;;;;;4849750;29;20427;-75
2021/01/04 10:44:25;;;;;;;14.85;9.98;;;1.50;99.90;;;;;;4837213;29;20409;-73
2021/01/04 10:46:58;;;;;;;14.35;10.00;;;1.50;99.90;;;;;;4839650;29;20413;-73
2021/01/04 10:49:28;;;;;;;13.23;9.32;;;1.50;99.90;;;;;;4844468;29;20408;-74
2021/01/04 10:51:55;;;;;;;11.13;8.83;;;1.50;99.90;;;;;;4842910;29;21113;-74
2021/01/04 10:54:33;;;;;;;14.20;9.10;;;1.40;99.90;;;;;;4852405;29;20466;-75
2021/01/04 10:57:11;;;;;;;11.60;8.95;;;1.60;99.90;;;;;;4863585;29;20461;-75
2021/01/04 10:59:39;;;;;;;12.85;8.75;;;1.50;99.90;;;;;;4864506;29;21557;-74
2021/01/04 11:02:06;;;;;;;12.70;9.45;;;1.50;99.90;;;;;;4839080;29;20436;-75
2021/01/04 11:04:31;;;;;;;11.48;8.23;;;1.50;99.90;;;;;;4843285;29;20411;-75
2021/01/04 11:07:12;;;;;;;13.32;9.50;;;1.50;99.90;;;;;;4882941;28;20408;-75
2021/01/04 11:09:40;;;;;;;9.63;7.63;;;1.50;99.90;;;;;;4870935;29;20435;-75
2021/01/04 11:12:20;;;;;;;11.82;8.88;;;1.60;99.90;;;;;;4840440;29;20440;-75
2021/01/04 11:14:53;;;;;;;13.35;9.40;;;1.70;99.90;;;;;;4839958;29;20468;-75
2021/01/04 11:17:20;;;;;;;13.00;8.82;;;1.60;99.90;;;;;;4880822;28;20945;-75
2021/01/04 11:19:46;;;;;;;13.13;9.80;;;1.60;99.90;;;;;;4846964;29;20432;-74
2021/01/04 11:22:24;;;;;;;10.00;8.10;;;1.60;99.90;;;;;;4832934;29;20432;-75
2021/01/04 11:24:51;;;;;;;11.68;8.32;;;1.60;99.90;;;;;;4844054;29;20450;-75
2021/01/04 11:27:17;;;;;;;11.43;8.17;;;1.60;99.90;;;;;;4849939;29;20413;-76
2021/01/04 11:29:43;;;;;;;13.52;8.57;;;1.60;99.90;;;;;;4844050;29;20404;-76
2021/01/04 11:32:08;;;;;;;12.60;8.90;;;1.80;99.90;;;;;;4843644;28;20417;-76
2021/01/04 11:34:34;;;;;;;14.90;10.00;;;1.60;99.90;;;;;;4865797;29;20962;-75
2021/01/04 11:37:00;;;;;;;12.03;9.60;;;1.60;99.90;;;;;;4872529;29;20785;-74
2021/01/04 11:39:26;;;;;;;14.87;9.20;;;1.60;99.90;;;;;;4855578;28;20405;-75
2021/01/04 11:41:52;;;;;;;10.23;8.40;;;1.60;99.90;;;;;;4856242;28;20426;-75
2021/01/04 11:44:18;;;;;;;12.73;8.77;;;1.50;99.90;;;;;;4852466;29;20422;-74
2021/01/04 11:46:44;;;;;;;12.60;8.40;;;1.50;99.90;;;;;;4846371;29;20417;-75
2021/01/04 11:49:10;;;;;;;14.38;9.40;;;1.50;99.90;;;;;;4859758;29;20405;-75
2021/01/04 11:51:35;;;;;;;13.67;8.53;;;1.50;99.90;;;;;;4836916;29;20412;-75
2021/01/04 11:54:03;;;;;;;11.43;7.78;;;1.50;99.90;;;;;;4832199;29;20409;-75
2021/01/04 11:56:29;;;;;;;13.80;8.53;;;1.60;99.90;;;;;;4824476;29;25404;-75
2021/01/04 11:58:55;;;;;;;14.80;9.38;;;1.60;99.90;;;;;;4833470;29;20506;-75
2021/01/04 12:01:21;;;;;;;12.37;8.57;;;1.60;99.90;;;;;;4828284;29;20517;-74
2021/01/04 12:03:46;;;;;;;12.68;9.15;;;1.60;99.90;;;;;;4840273;29;20484;-76
2021/01/04 12:06:16;;;;;;;10.90;7.68;;;1.60;99.90;;;;;;4845645;29;20403;-76
2021/01/04 12:08:42;;;;;;;11.07;8.10;;;1.50;99.90;;;;;;4840559;29;20413;-76
2021/01/04 12:11:08;;;;;;;13.47;9.50;;;1.60;99.90;;;;;;4846087;29;20446;-75
2021/01/04 12:13:34;;;;;;;14.07;9.23;;;1.60;99.90;;;;;;4871414;28;20427;-76
2021/01/04 12:16:00;;;;;;;11.05;8.32;;;1.60;99.90;;;;;;4875322;29;20978;-76
2021/01/04 12:18:26;;;;;;;13.85;9.15;;;1.50;99.90;;;;;;4837138;29;20416;-76
2021/01/04 12:20:53;;;;;;;10.83;8.53;;;1.60;99.90;;;;;;4862050;29;21240;-75
2021/01/04 12:23:19;;;;;;;11.38;8.75;;;1.50;99.90;;;;;;4828353;29;20422;-75
2021/01/04 12:25:44;;;;;;;13.33;9.67;;;1.50;99.90;;;;;;4845090;29;20412;-75
2021/01/04 12:28:10;;;;;;;12.65;8.82;;;1.50;99.90;;;;;;4848425;29;20887;-76
2021/01/04 12:30:37;;;;;;;15.50;9.33;;;1.50;99.90;;;;;;4815808;29;21122;-76
2021/01/04 12:33:03;;;;;;;13.23;9.20;;;1.50;99.90;;;;;;4840962;29;20421;-75
2021/01/04 12:35:29;;;;;;;11.20;9.00;;;1.50;99.90;;;;;;4840739;29;20499;-75
2021/01/04 12:37:54;;;;;;;12.05;8.75;;;1.50;99.90;;;;;;4827563;29;20424;-75
2021/01/04 12:40:25;;;;;;;13.73;9.20;;;1.50;99.90;;;;;;4849919;29;20408;-76
2021/01/04 12:42:51;;;;;;;13.13;8.70;;;1.50;99.90;;;;;;4864126;28;20409;-75
2021/01/04 12:45:17;;;;;;;15.40;9.43;;;1.50;99.90;;;;;;4866558;28;20464;-75
2021/01/04 12:47:43;;;;;;;12.60;9.43;;;1.50;99.90;;;;;;4866600;29;20397;-75
2021/01/04 12:50:09;;;;;;;13.15;9.20;;;1.50;99.90;;;;;;4869994;29;20516;-77
2021/01/04 12:52:35;;;;;;;13.88;9.75;;;1.50;99.90;;;;;;4838719;29;20472;-75
2021/01/04 12:55:01;;;;;;;14.15;9.07;;;1.40;99.90;;;;;;4848343;29;20415;-74
2021/01/04 12:57:26;;;;;;;14.67;9.93;;;1.50;99.90;;;;;;4852758;29;20507;-75
2021/01/04 12:59:53;;;;;;;17.90;10.60;;;1.50;99.90;;;;;;4850082;29;20401;-74
2021/01/04 13:02:18;;;;;;;14.45;10.10;;;1.50;99.90;;;;;;4865840;28;20417;-76
2021/01/04 13:04:44;;;;;;;14.93;9.73;;;1.40;99.90;;;;;;4843554;29;20446;-76
2021/01/04 13:07:11;;;;;;;15.23;9.80;;;1.50;99.90;;;;;;4879608;28;20413;-73
2021/01/04 13:09:37;;;;;;;16.48;10.30;;;1.40;99.90;;;;;;4861306;29;20467;-76
2021/01/04 13:12:03;;;;;;;15.93;9.93;;;1.50;99.90;;;;;;4868192;28;21277;-76
2021/01/04 13:14:29;;;;;;;16.48;10.07;;;1.50;99.90;;;;;;4851113;29;20971;-76
2021/01/04 13:16:56;;;;;;;15.63;9.90;;;1.50;99.90;;;;;;4830034;29;20411;-76
2021/01/04 13:19:27;;;;;;;13.93;10.10;;;1.40;99.90;;;;;;4857151;29;20407;-76
2021/01/04 13:21:54;;;;;;;12.70;9.70;;;1.40;99.90;;;;;;4841185;29;20425;-75
2021/01/04 13:24:19;;;;;;;18.45;10.95;;;1.40;99.90;;;;;;4837339;29;20487;-75
2021/01/04 13:26:47;;;;;;;15.57;10.32;;;1.30;99.90;;;;;;4845446;29;20426;-74
2021/01/04 13:29:13;;;;;;;17.23;9.98;;;1.30;99.90;;;;;;4873848;29;20417;-75